Time;durP1;ratioP1;P1;durP2;ratioP2;P2;SDS_P1;SDS_P2;PMS_P1;PMS_P2;Temp;Humidity;BMP_temperature;BMP_pressure;BME280_temperature;BME280_humidity;BME280_pressure;Samples;Min_cycle;Max_cycle;Signal;HPM_P1;HPM_P2
2021/03/21 00:01:44;;;;;;;;;;;;;;;-3.42;100.00;99516.91;1774182;81;20133;-71
2021/03/21 00:04:13;;;;;;;;;;;;;;;-3.44;100.00;99509.69;1774210;80;20132;-72
2021/03/21 00:06:44;;;;;;;;;;;;;;;-3.49;100.00;99509.36;1774098;80;20177;-72
2021/03/21 00:09:11;;;;;;;;;;;;;;;-3.48;100.00;99513.61;1774198;80;20137;-71
2021/03/21 00:11:40;;;;;;;;;;;;;;;-3.51;100.00;99506.08;1774175;81;22263;-71
2021/03/21 00:14:08;;;;;;;;;;;;;;;-3.58;100.00;99508.52;1774227;81;20519;-71
2021/03/21 00:16:36;;;;;;;;;;;;;;;-3.61;100.00;99511.48;1774213;81;20188;-72
2021/03/21 00:19:06;;;;;;;;;;;;;;;-3.65;100.00;99510.16;1774131;81;20291;-71
2021/03/21 00:21:33;;;;;;;;;;;;;;;-3.66;100.00;99509.34;1774200;81;20165;-71
2021/03/21 00:24:03;;;;;;;;;;;;;;;-3.71;100.00;99514.27;1774179;80;21670;-71
2021/03/21 00:26:31;;;;;;;;;;;;;;;-3.72;100.00;99507.88;1774151;80;20117;-71
2021/03/21 00:28:59;;;;;;;;;;;;;;;-3.74;100.00;99509.34;1774139;81;20240;-71
2021/03/21 00:31:27;;;;;;;;;;;;;;;-3.78;100.00;99500.65;1776020;80;20243;-71
2021/03/21 00:33:55;;;;;;;;;;;;;;;-3.80;100.00;99500.80;1776996;80;20570;-71
2021/03/21 00:36:23;;;;;;;;;;;;;;;-3.80;100.00;99494.73;1776917;80;21370;-71
2021/03/21 00:38:52;;;;;;;;;;;;;;;-3.79;100.00;99488.53;1776832;80;20244;-71
2021/03/21 00:41:22;;;;;;;;;;;;;;;-3.84;100.00;99497.37;1776843;80;20121;-71
2021/03/21 00:43:51;;;;;;;;;;;;;;;-3.83;100.00;99489.33;1776888;80;20221;-71
2021/03/21 00:46:22;;;;;;;;;;;;;;;-3.82;100.00;99489.67;1776941;80;20486;-71
2021/03/21 00:48:50;;;;;;;;;;;;;;;-3.85;100.00;99485.23;1776866;80;21369;-71
2021/03/21 00:51:17;;;;;;;;;;;;;;;-3.83;100.00;99485.89;1776859;80;20161;-71
2021/03/21 00:53:45;;;;;;;;;;;;;;;-3.88;100.00;99491.13;1776927;80;20208;-71
2021/03/21 00:56:28;;;;;;;;;;;;;;;-3.90;100.00;99490.45;1776867;80;20164;-71
2021/03/21 00:58:58;;;;;;;;;;;;;;;-3.93;100.00;99482.92;1776851;80;20503;-71
2021/03/21 01:01:28;;;;;;;;;;;;;;;-3.89;100.00;99475.57;1776870;80;21195;-70
2021/03/21 01:03:56;;;;;;;;;;;;;;;-3.91;100.00;99471.79;1776821;80;20502;-71
2021/03/21 01:06:24;;;;;;;;;;;;;;;-3.91;100.00;99472.28;1776912;80;20112;-71
2021/03/21 01:08:53;;;;;;;;;;;;;;;-3.97;100.00;99473.77;1776848;80;20168;-71
2021/03/21 01:11:30;;;;;;;;;;;;;;;-3.98;100.00;99475.22;1776877;80;20499;-71
2021/03/21 01:13:57;;;;;;;;;;;;;;;-4.01;100.00;99476.86;1776867;80;21201;-71
2021/03/21 01:16:29;;;;;;;;;;;;;;;-4.05;100.00;99468.98;1776871;80;20235;-71
2021/03/21 01:18:59;;;;;;;;;;;;;;;-4.08;100.00;99466.69;1776639;80;20231;-70
2021/03/21 01:21:30;;;;;;;;;;;;;;;-4.08;100.00;99466.20;1776952;80;20715;-71
2021/03/21 01:23:58;;;;;;;;;;;;;;;-4.06;100.00;99468.67;1776881;80;20141;-71
2021/03/21 01:26:29;;;;;;;;;;;;;;;-4.11;100.00;99464.72;1776873;80;21953;-71
2021/03/21 01:28:58;;;;;;;;;;;;;;;-4.13;100.00;99465.86;1776749;80;20218;-70
2021/03/21 01:31:26;;;;;;;;;;;;;;;-4.14;100.00;99462.42;1775106;80;20236;-70
2021/03/21 01:33:56;;;;;;;;;;;;;;;-4.16;100.00;99462.26;1774138;81;20200;-70
2021/03/21 01:36:29;;;;;;;;;;;;;;;-4.14;100.00;99460.27;1774183;81;20137;-70
2021/03/21 01:39:00;;;;;;;;;;;;;;;-4.09;100.00;99456.70;1774161;81;21363;-70
2021/03/21 01:41:31;;;;;;;;;;;;;;;-4.03;100.00;99457.85;1774050;81;20231;-70
2021/03/21 01:43:59;;;;;;;;;;;;;;;-4.03;100.00;99457.85;1774122;80;20224;-70
2021/03/21 01:46:37;;;;;;;;;;;;;;;-4.06;100.00;99451.13;1774142;81;20223;-70
2021/03/21 01:49:08;;;;;;;;;;;;;;;-4.08;100.00;99450.47;1774258;81;20483;-69
2021/03/21 01:51:37;;;;;;;;;;;;;;;-4.08;100.00;99447.84;1774027;79;21567;-69
2021/03/21 01:54:07;;;;;;;;;;;;;;;-4.10;100.00;99445.87;1774101;80;20180;-70
2021/03/21 01:56:36;;;;;;;;;;;;;;;-4.12;100.00;99445.20;1774102;80;20176;-70
2021/03/21 01:59:07;;;;;;;;;;;;;;;-4.15;100.00;99446.34;1774124;81;20249;-70
2021/03/21 02:01:35;;;;;;;;;;;;;;;-4.15;100.00;99440.30;1774173;81;20219;-70
2021/03/21 02:04:05;;;;;;;;;;;;;;;-4.15;100.00;99431.13;1774132;81;21333;-70
2021/03/21 02:06:36;;;;;;;;;;;;;;;-4.14;100.00;99438.83;1774063;80;20128;-70
2021/03/21 02:09:29;;;;;;;;;;;;;;;-4.16;100.00;99438.67;1774156;81;20140;-70
2021/03/21 02:12:09;;;;;;;;;;;;;;;-4.16;100.00;99432.92;1774238;80;20140;-69
2021/03/21 02:14:57;;;;;;;;;;;;;;;-4.23;100.00;99428.50;1774253;79;20231;-70
2021/03/21 02:17:41;;;;;;;;;;;;;;;-4.31;100.00;99420.95;1774285;80;21423;-70
2021/03/21 02:20:19;;;;;;;;;;;;;;;-4.38;100.00;99419.14;1774208;81;20152;-71
2021/03/21 02:22:53;;;;;;;;;;;;;;;-4.40;100.00;99418.47;1774342;80;20175;-71
2021/03/21 02:26:00;;;;;;;;;;;;;;;-4.37;100.00;99405.85;1774345;80;20270;-70
2021/03/21 02:29:00;;;;;;;;;;;;;;;-4.41;100.00;99410.27;1772112;80;20224;-71
2021/03/21 02:31:43;;;;;;;;;;;;;;;-4.52;100.00;99400.42;1704610;83;21207;-70
2021/03/21 02:34:24;;;;;;;;;;;;;;;-4.54;100.00;99408.92;1853636;77;20248;-69
2021/03/21 02:36:54;;;;;;;;;;;;;;;-4.55;100.00;99399.44;1822757;78;20125;-70
2021/03/21 02:39:29;;;;;;;;;;;;;;;-4.55;100.00;99398.63;1822615;78;21837;-69
2021/03/21 02:42:01;;;;;;;;;;;;;;;-4.59;100.00;99397.30;1822592;78;20149;-69
2021/03/21 02:44:31;;;;;;;;;;;;;;;-4.61;100.00;99397.94;1820741;78;20149;-70
2021/03/21 02:47:01;;;;;;;;;;;;;;;-4.68;100.00;99393.82;1822586;78;20160;-70
2021/03/21 02:49:38;;;;;;;;;;;;;;;-4.69;100.00;99393.50;1822679;78;20754;-70
2021/03/21 02:52:11;;;;;;;;;;;;;;;-4.69;100.00;99396.12;1791368;78;21322;-70
2021/03/21 02:54:42;;;;;;;;;;;;;;;-4.70;100.00;99392.34;1822547;78;20176;-70
2021/03/21 02:57:15;;;;;;;;;;;;;;;-4.77;100.00;99387.75;1822646;78;20227;-70
2021/03/21 02:59:51;;;;;;;;;;;;;;;-4.78;100.00;99381.36;1822677;78;20507;-70
2021/03/21 03:02:37;;;;;;;;;;;;;;;-4.75;100.00;99377.13;1822608;78;20167;-70
2021/03/21 03:05:18;;;;;;;;;;;;;;;-4.76;100.00;99378.09;1822700;78;22264;-69
2021/03/21 03:07:53;;;;;;;;;;;;;;;-4.74;100.00;99373.52;1822584;78;20160;-70
2021/03/21 03:10:30;;;;;;;;;;;;;;;-4.72;100.00;99372.88;1822571;78;20137;-69
2021/03/21 03:13:05;;;;;;;;;;;;;;;-4.71;100.00;99369.77;1822542;78;20125;-69
2021/03/21 03:15:33;;;;;;;;;;;;;;;-4.69;100.00;99369.93;1822593;78;20173;-69
2021/03/21 03:18:04;;;;;;;;;;;;;;;-4.68;100.00;99371.56;1822611;78;21204;-69
2021/03/21 03:20:51;;;;;;;;;;;;;;;-4.74;100.00;99367.79;1817224;78;20148;-69
2021/03/21 03:23:40;;;;;;;;;;;;;;;-4.80;100.00;99368.91;1822050;78;20169;-69
2021/03/21 03:26:22;;;;;;;;;;;;;;;-4.81;100.00;99368.59;1818152;78;20168;-70
2021/03/21 03:29:03;;;;;;;;;;;;;;;-4.72;100.00;99370.76;1822610;78;20231;-70
2021/03/21 03:31:50;;;;;;;;;;;;;;;-4.72;100.00;99374.69;1822618;78;22342;-70
2021/03/21 03:34:20;;;;;;;;;;;;;;;-4.68;100.00;99369.44;1830262;78;20120;-70
2021/03/21 03:36:47;;;;;;;;;;;;;;;-4.70;100.00;99365.69;1831527;78;20140;-70
2021/03/21 03:39:15;;;;;;;;;;;;;;;-4.67;100.00;99358.81;1831495;78;20136;-71
2021/03/21 03:41:44;;;;;;;;;;;;;;;-4.62;100.00;99352.59;1831557;78;20148;-70
2021/03/21 03:44:33;;;;;;;;;;;;;;;-4.62;100.00;99356.53;1831249;78;21425;-70
2021/03/21 03:47:05;;;;;;;;;;;;;;;-4.66;100.00;99360.44;1831013;78;20605;-71
2021/03/21 03:49:46;;;;;;;;;;;;;;;-4.63;100.00;99354.91;1830996;78;20152;-70
2021/03/21 03:52:26;;;;;;;;;;;;;;;-4.59;100.00;99353.58;1830874;78;20168;-70
2021/03/21 03:55:03;;;;;;;;;;;;;;;-4.61;100.00;99350.80;1830949;78;20156;-70
2021/03/21 03:57:40;;;;;;;;;;;;;;;-4.69;100.00;99356.84;1830874;78;21385;-70
2021/03/21 04:00:15;;;;;;;;;;;;;;;-4.62;100.00;99357.02;1831019;78;20635;-70
2021/03/21 04:02:50;;;;;;;;;;;;;;;-4.58;100.00;99354.39;1830953;78;20510;-70
2021/03/21 04:05:23;;;;;;;;;;;;;;;-4.62;100.00;99355.72;1830983;78;20176;-70
2021/03/21 04:08:13;;;;;;;;;;;;;;;-4.61;100.00;99351.61;1831132;78;20152;-70
2021/03/21 04:11:00;;;;;;;;;;;;;;;-4.55;100.00;99352.78;1830916;78;21344;-70
2021/03/21 04:13:35;;;;;;;;;;;;;;;-4.55;100.00;99349.67;1805065;78;20125;-70
2021/03/21 04:16:05;;;;;;;;;;;;;;;-4.45;100.00;99349.52;1830937;78;20231;-70
2021/03/21 04:18:45;;;;;;;;;;;;;;;-4.39;100.00;99344.92;1831168;78;20148;-70
2021/03/21 04:21:20;;;;;;;;;;;;;;;-4.36;100.00;99339.84;1831074;78;20156;-70
2021/03/21 04:23:57;;;;;;;;;;;;;;;-4.44;100.00;99343.28;1830911;78;21364;-70
2021/03/21 04:26:32;;;;;;;;;;;;;;;-4.35;100.00;99340.20;1830871;78;20136;-70
2021/03/21 04:29:06;;;;;;;;;;;;;;;-4.19;100.00;99336.28;1830931;78;20144;-69
2021/03/21 04:31:34;;;;;;;;;;;;;;;-4.04;100.00;99339.52;1831045;78;20522;-71
2021/03/21 04:34:04;;;;;;;;;;;;;;;-3.92;100.00;99330.34;1825012;78;20150;-70
2021/03/21 04:36:36;;;;;;;;;;;;;;;-3.83;100.00;99337.22;1790430;78;22290;-70
2021/03/21 04:39:21;;;;;;;;;;;;;;;-3.71;100.00;99344.25;1821874;78;20145;-70
2021/03/21 04:41:55;;;;;;;;;;;;;;;-3.59;100.00;99346.04;1822030;78;20518;-70
2021/03/21 04:44:25;;;;;;;;;;;;;;;-3.56;100.00;99339.14;1821901;78;20148;-69
2021/03/21 04:47:04;;;;;;;;;;;;;;;-3.52;100.00;99341.77;1821995;78;20152;-70
2021/03/21 04:49:32;;;;;;;;;;;;;;;-3.46;100.00;99341.89;1817452;78;22222;-70
2021/03/21 04:52:11;;;;;;;;;;;;;;;-3.38;100.00;99329.27;1821885;78;20191;-69
2021/03/21 04:54:39;;;;;;;;;;;;;;;-3.33;100.00;99340.07;1821869;78;20148;-69
2021/03/21 04:57:20;;;;;;;;;;;;;;;-3.27;100.00;99339.38;1821943;78;20121;-69
2021/03/21 04:59:48;;;;;;;;;;;;;;;-3.18;100.00;99341.99;1821976;78;20144;-70
2021/03/21 05:02:29;;;;;;;;;;;;;;;-3.16;100.00;99337.36;1790762;78;21383;-70
2021/03/21 05:05:01;;;;;;;;;;;;;;;-3.17;100.00;99342.30;1821946;78;20125;-70
2021/03/21 05:07:47;;;;;;;;;;;;;;;-3.11;100.00;99338.98;1818254;78;20165;-70
2021/03/21 05:10:28;;;;;;;;;;;;;;;-3.12;100.00;99339.48;1821865;78;20149;-69
2021/03/21 05:13:18;;;;;;;;;;;;;;;-3.07;100.00;99335.84;1821737;78;20255;-69
2021/03/21 05:15:55;;;;;;;;;;;;;;;-3.04;100.00;99336.00;1821960;78;22270;-70
2021/03/21 05:18:36;;;;;;;;;;;;;;;-3.04;100.00;99335.52;1821959;78;20132;-70
2021/03/21 05:21:32;;;;;;;;;;;;;;;-3.14;100.00;99334.89;1820901;78;20172;-70
2021/03/21 05:24:06;;;;;;;;;;;;;;;-3.10;100.00;99338.82;1821350;78;20323;-70
2021/03/21 05:26:46;;;;;;;;;;;;;;;-3.09;100.00;99339.13;1811731;78;20168;-70
2021/03/21 05:29:43;;;;;;;;;;;;;;;-3.06;100.00;99334.06;1821576;78;21387;-71
2021/03/21 05:32:13;;;;;;;;;;;;;;;-3.09;100.00;99334.38;1821451;78;20288;-70
2021/03/21 05:34:42;;;;;;;;;;;;;;;-3.09;100.00;99332.56;1804683;78;20225;-70
2021/03/21 05:37:22;;;;;;;;;;;;;;;-3.01;100.00;99327.80;1799905;78;20121;-70
2021/03/21 05:40:15;;;;;;;;;;;;;;;-2.94;100.00;99330.06;1799904;79;20232;-70
2021/03/21 05:42:52;;;;;;;;;;;;;;;-2.99;100.00;99326.30;1799912;79;21882;-70
2021/03/21 05:45:29;;;;;;;;;;;;;;;-3.00;100.00;99323.36;1798187;79;20610;-70
2021/03/21 05:48:32;;;;;;;;;;;;;;;-2.98;100.00;99324.82;1799047;79;20512;-70
2021/03/21 05:51:30;;;;;;;;;;;;;;;-2.98;100.00;99314.32;1739295;81;20167;-70
2021/03/21 05:54:34;;;;;;;;;;;;;;;-2.96;100.00;99316.28;1739231;82;20241;-71
2021/03/21 05:57:26;;;;;;;;;;;;;;;-2.84;100.00;99314.91;1739390;82;21403;-71
2021/03/21 06:00:15;;;;;;;;;;;;;;;-2.65;100.00;99318.06;1739114;81;20154;-71
2021/03/21 06:03:04;;;;;;;;;;;;;;;-2.58;100.00;99316.38;1739284;82;20535;-70
2021/03/21 06:05:45;;;;;;;;;;;;;;;-2.47;100.00;99305.47;1739213;82;20248;-70
2021/03/21 06:08:25;;;;;;;;;;;;;;;-2.51;100.00;99306.80;1738528;81;20276;-70
2021/03/21 06:14:36;;;;;;;;;;;;;;;-2.02;100.00;99307.72;1853098;77;20193;-69
2021/03/21 06:17:22;;;;;;;;;;;;;;;-2.00;100.00;99310.19;1822268;78;20160;-70
2021/03/21 06:19:54;;;;;;;;;;;;;;;-1.98;100.00;99306.38;1822320;78;21418;-70
2021/03/21 06:22:42;;;;;;;;;;;;;;;-2.17;100.00;99297.67;1820870;78;20172;-71
2021/03/21 06:25:34;;;;;;;;;;;;;;;-2.05;100.00;99302.82;1821728;78;20240;-71
2021/03/21 06:28:23;;;;;;;;;;;;;;;-2.14;100.00;99287.30;1822150;78;20160;-71
2021/03/21 06:31:07;;;;;;;;;;;;;;;-2.05;100.00;99298.06;1822184;78;20180;-70
2021/03/21 06:34:01;;;;;;;;;;;;;;;-1.92;100.00;99297.45;1822150;78;21369;-70
2021/03/21 06:36:35;;;;;;;;;;;;;;;-1.96;100.00;99296.97;1711047;82;20152;-71
2021/03/21 06:39:19;;;;;;;;;;;;;;;-2.17;100.00;99293.73;1710910;84;20672;-72
2021/03/21 06:42:00;;;;;;;;;;;;;;;-2.14;100.00;99289.92;1709719;82;20318;-71
2021/03/21 06:44:50;;;;;;;;;;;;;;;-2.17;100.00;99286.65;1710142;84;20564;-72
2021/03/21 06:48:00;;;;;;;;;;;;;;;-2.16;100.00;99282.20;1835313;77;20168;-69
2021/03/21 06:50:40;;;;;;;;;;;;;;;-2.10;100.00;99284.64;1787618;80;20178;-69
2021/03/21 06:53:30;;;;;;;;;;;;;;;-1.84;100.00;99282.38;1753239;80;21375;-69
2021/03/21 06:56:01;;;;;;;;;;;;;;;-1.72;100.00;99268.28;1751328;81;20184;-70
2021/03/21 06:58:55;;;;;;;;;;;;;;;-1.63;100.00;99279.05;1779009;80;20210;-70
2021/03/21 07:01:49;;;;;;;;;;;;;;;-1.54;100.00;99270.07;1786593;80;20289;-71
2021/03/21 07:04:32;;;;;;;;;;;;;;;-1.54;100.00;99256.91;1787309;80;20525;-70
2021/03/21 07:07:18;;;;;;;;;;;;;;;-1.75;100.00;99246.29;1783429;80;21376;-70
2021/03/21 07:09:59;;;;;;;;;;;;;;;-1.65;100.00;99247.34;1751839;81;20160;-68
2021/03/21 07:12:36;;;;;;;;;;;;;;;-1.63;100.00;99256.68;1751674;80;20280;-69
2021/03/21 07:15:30;;;;;;;;;;;;;;;-1.70;100.00;99241.80;1752204;82;20240;-72
2021/03/21 07:18:20;;;;;;;;;;;;;;;-1.75;100.00;99247.61;1692965;84;20540;-70
2021/03/21 07:21:11;;;;;;;;;;;;;;;-1.68;100.00;99245.88;1693667;84;21296;-69
2021/03/21 07:24:06;;;;;;;;;;;;;;;-1.52;100.00;99242.23;1692928;83;20325;-70
2021/03/21 07:26:57;;;;;;;;;;;;;;;-1.46;97.01;99236.75;1694112;84;20350;-70
2021/03/21 07:29:42;;;;;;;;;;;;;;;-1.46;100.00;99244.14;1694496;83;20312;-72
2021/03/21 07:32:41;;;;;;;;;;;;;;;-1.36;97.13;99242.03;1853988;77;20181;-70
2021/03/21 07:35:33;;;;;;;;;;;;;;;-1.27;94.50;99237.50;1821779;78;20125;-70
2021/03/21 07:38:23;;;;;;;;;;;;;;;-1.34;94.32;99236.59;1822165;78;21269;-70
2021/03/21 07:41:02;;;;;;;;;;;;;;;-1.20;96.40;99227.86;1821670;78;20144;-70
2021/03/21 07:43:40;;;;;;;;;;;;;;;-1.15;93.16;99228.11;1822063;78;20252;-71
2021/03/21 07:46:15;;;;;;;;;;;;;;;-1.08;93.78;99220.27;1821440;78;20200;-72
2021/03/21 07:49:09;;;;;;;;;;;;;;;-0.99;92.04;99215.70;1821394;78;20128;-72
2021/03/21 07:52:13;;;;;;;;;;;;;;;-0.69;93.07;99221.66;1821583;78;21184;-72
2021/03/21 07:54:56;;;;;;;;;;;;;;;-0.73;86.27;99206.75;1822125;78;20228;-71
2021/03/21 07:57:45;;;;;;;;;;;;;;;-1.10;87.38;99207.80;1821980;78;20200;-71
2021/03/21 08:00:14;;;;;;;;;;;;;;;-1.19;88.66;99200.50;1820834;78;20726;-71
2021/03/21 08:02:43;;;;;;;;;;;;;;;-1.28;88.83;99184.50;1819458;78;20284;-72
2021/03/21 08:05:22;;;;;;;;;;;;;;;-1.34;87.82;99201.05;1820506;78;21199;-71
2021/03/21 08:07:52;;;;;;;;;;;;;;;-1.42;87.22;99194.56;1820430;78;20279;-71
2021/03/21 08:10:25;;;;;;;;;;;;;;;-1.19;89.47;99189.97;1821398;78;20503;-72
2021/03/21 08:13:13;;;;;;;;;;;;;;;-1.33;87.46;99177.66;1821406;78;20279;-71
2021/03/21 08:15:41;;;;;;;;;;;;;;;-1.02;85.88;99181.84;1821740;78;20783;-72
2021/03/21 08:18:18;;;;;;;;;;;;;;;-1.09;86.35;99169.41;1821662;78;21374;-71
2021/03/21 08:20:54;;;;;;;;;;;;;;;-1.02;88.11;99172.11;1820400;78;20164;-72
2021/03/21 08:23:26;;;;;;;;;;;;;;;-0.94;86.04;99167.22;1794551;78;20642;-72
2021/03/21 08:25:56;;;;;;;;;;;;;;;-0.48;84.83;99163.65;1789654;79;20145;-72
2021/03/21 08:28:24;;;;;;;;;;;;;;;-0.46;82.67;99154.24;1789421;80;20487;-71
2021/03/21 08:30:59;;;;;;;;;;;;;;;-0.42;81.69;99154.14;1789410;79;21346;-71
2021/03/21 08:33:40;;;;;;;;;;;;;;;-0.39;81.49;99144.55;1789136;80;20292;-74
2021/03/21 08:36:27;;;;;;;;;;;;;;;-0.50;81.33;99145.08;1788837;80;20212;-73
2021/03/21 08:39:08;;;;;;;;;;;;;;;-0.47;82.43;99146.00;1789076;79;20244;-73
2021/03/21 08:41:54;;;;;;;;;;;;;;;-0.42;79.75;99136.20;1788639;80;20488;-73
2021/03/21 08:44:43;;;;;;;;;;;;;;;-0.43;80.19;99134.07;1769661;80;22121;-73
2021/03/21 08:47:23;;;;;;;;;;;;;;;-0.39;81.05;99141.92;1788547;80;20220;-73
2021/03/21 08:49:53;;;;;;;;;;;;;;;-0.24;81.67;99130.75;1788140;80;20221;-71
2021/03/21 08:52:42;;;;;;;;;;;;;;;-0.27;77.01;99107.89;1788879;80;20503;-72
2021/03/21 08:55:26;;;;;;;;;;;;;;;-0.29;78.10;99117.33;1787839;80;20237;-72
2021/03/21 08:57:54;;;;;;;;;;;;;;;-0.11;81.58;99095.70;1787803;79;22332;-73
2021/03/21 09:00:36;;;;;;;;;;;;;;;0.14;78.48;99106.56;1788567;79;20216;-71
2021/03/21 09:03:31;;;;;;;;;;;;;;;-0.06;77.76;99101.20;1780901;80;20561;-72
2021/03/21 09:06:00;;;;;;;;;;;;;;;0.04;77.49;99092.13;1757969;81;20231;-72
2021/03/21 09:08:32;;;;;;;;;;;;;;;0.34;78.54;99082.91;1756648;80;20151;-72
2021/03/21 09:11:02;;;;;;;;;;;;;;;0.55;76.33;99076.64;1757414;81;22119;-72
2021/03/21 09:13:33;;;;;;;;;;;;;;;0.88;77.75;99083.78;1756953;80;20248;-72
2021/03/21 09:16:04;;;;;;;;;;;;;;;0.95;74.12;99092.53;1757319;81;20247;-72
2021/03/21 09:18:43;;;;;;;;;;;;;;;1.00;75.61;99091.41;1738383;81;20235;-73
2021/03/21 09:21:18;;;;;;;;;;;;;;;0.86;71.58;99092.45;1757886;81;20243;-72
2021/03/21 09:24:02;;;;;;;;;;;;;;;1.02;76.69;99081.45;1757177;80;21635;-72
2021/03/21 09:26:48;;;;;;;;;;;;;;;1.18;75.68;99076.28;1756375;81;20164;-73
2021/03/21 09:29:27;;;;;;;;;;;;;;;1.45;72.86;99060.39;1757599;81;20139;-75
2021/03/21 09:31:56;;;;;;;;;;;;;;;1.46;71.58;99065.45;1761614;81;20421;-73
2021/03/21 09:34:46;;;;;;;;;;;;;;;1.42;70.88;99065.59;1765915;81;20272;-73
2021/03/21 09:37:16;;;;;;;;;;;;;;;1.46;73.50;99056.72;1766015;81;21148;-73
2021/03/21 09:40:16;;;;;;;;;;;;;;;1.37;70.08;99057.94;1766057;81;20234;-73
2021/03/21 09:42:47;;;;;;;;;;;;;;;1.26;68.85;99037.73;1764564;81;20210;-74
2021/03/21 09:45:16;;;;;;;;;;;;;;;1.32;70.06;99045.34;1766137;81;20172;-73
2021/03/21 09:48:02;;;;;;;;;;;;;;;1.62;73.09;99043.05;1765133;81;20321;-73
2021/03/21 09:50:41;;;;;;;;;;;;;;;1.96;70.61;99027.88;1766305;81;21203;-74
2021/03/21 09:53:24;;;;;;;;;;;;;;;1.60;66.82;99018.63;1766138;80;20266;-74
2021/03/21 09:55:53;;;;;;;;;;;;;;;1.66;68.37;99034.98;1765858;81;20583;-73
2021/03/21 09:58:30;;;;;;;;;;;;;;;1.76;70.42;99026.61;1766151;80;20478;-74
2021/03/21 10:01:10;;;;;;;;;;;;;;;1.76;68.54;99004.63;1765653;80;20226;-72
2021/03/21 10:03:38;;;;;;;;;;;;;;;1.64;68.47;99019.02;1765858;81;22330;-72
2021/03/21 10:06:26;;;;;;;;;;;;;;;1.22;69.67;99016.67;1765323;80;20294;-72
2021/03/21 10:09:09;;;;;;;;;;;;;;;1.51;71.08;99010.62;1765807;80;20229;-74
2021/03/21 10:11:43;;;;;;;;;;;;;;;1.90;65.75;98989.80;1765443;80;20269;-71
2021/03/21 10:14:30;;;;;;;;;;;;;;;2.02;69.69;98999.73;1766400;81;20143;-72
2021/03/21 10:17:01;;;;;;;;;;;;;;;1.72;66.27;98998.96;1766149;80;20214;-72
2021/03/21 10:19:41;;;;;;;;;;;;;;;1.92;68.24;99004.16;1766575;81;20699;-72
2021/03/21 10:22:31;;;;;;;;;;;;;;;2.19;66.82;98996.89;1766156;80;20159;-74
2021/03/21 10:25:04;;;;;;;;;;;;;;;2.25;64.26;98985.43;1766243;81;20206;-73
2021/03/21 10:27:47;;;;;;;;;;;;;;;2.43;65.08;98990.02;1764388;81;20218;-75
2021/03/21 10:30:23;;;;;;;;;;;;;;;1.93;65.93;98982.76;1765297;81;21156;-73
2021/03/21 10:33:04;;;;;;;;;;;;;;;1.74;67.62;98970.95;1766043;81;20531;-71
2021/03/21 10:35:43;;;;;;;;;;;;;;;1.74;66.31;98980.21;1766147;81;20227;-73
2021/03/21 10:38:12;;;;;;;;;;;;;;;1.70;66.63;98966.60;1766292;80;20214;-71
2021/03/21 10:40:41;;;;;;;;;;;;;;;1.96;68.35;98972.78;1766179;80;20190;-73
2021/03/21 10:43:22;;;;;;;;;;;;;;;1.89;64.19;98956.95;1766204;80;21206;-70
2021/03/21 10:45:53;;;;;;;;;;;;;;;2.62;65.83;98967.06;1765979;80;20225;-72
2021/03/21 10:48:28;;;;;;;;;;;;;;;3.25;64.10;98955.97;1765581;81;20258;-73
2021/03/21 10:51:01;;;;;;;;;;;;;;;3.14;62.07;98957.00;1765721;81;20278;-73
2021/03/21 10:53:37;;;;;;;;;;;;;;;2.93;61.77;98942.30;1765917;81;20568;-70
2021/03/21 10:56:20;;;;;;;;;;;;;;;2.82;61.90;98945.69;1766359;80;21272;-72
2021/03/21 10:59:07;;;;;;;;;;;;;;;2.77;61.50;98931.76;1765452;80;20818;-73
2021/03/21 11:01:38;;;;;;;;;;;;;;;2.37;62.76;98928.63;1766100;81;20139;-72
2021/03/21 11:04:22;;;;;;;;;;;;;;;3.15;65.64;98932.09;1765991;80;20147;-72
2021/03/21 11:06:56;;;;;;;;;;;;;;;3.37;63.80;98930.33;1766283;81;20263;-73
2021/03/21 11:09:31;;;;;;;;;;;;;;;2.85;63.83;98920.58;1766250;80;22087;-73
2021/03/21 11:11:57;;;;;;;;;;;;;;;3.10;61.96;98923.18;1765798;81;21017;-73
2021/03/21 11:14:30;;;;;;;;;;;;;;;3.26;62.38;98912.48;1766260;81;20526;-73
2021/03/21 11:17:04;;;;;;;;;;;;;;;3.49;61.87;98900.69;1765915;80;20230;-73
2021/03/21 11:19:36;;;;;;;;;;;;;;;2.98;62.10;98897.91;1765920;80;20234;-73
2021/03/21 11:22:29;;;;;;;;;;;;;;;2.97;63.13;98893.64;1766289;81;21197;-74
2021/03/21 11:24:56;;;;;;;;;;;;;;;2.88;64.06;98897.09;1762992;81;20159;-73
2021/03/21 11:27:31;;;;;;;;;;;;;;;3.30;62.57;98905.19;1765969;80;20566;-73
2021/03/21 11:30:25;;;;;;;;;;;;;;;3.28;62.60;98891.86;1765670;80;20521;-72
2021/03/21 11:32:49;;;;;;;;;;;;;;;3.52;60.40;98880.33;1765574;80;20219;-74
2021/03/21 11:35:25;;;;;;;;;;;;;;;3.69;62.66;98883.17;1766458;80;21197;-73
2021/03/21 11:37:58;;;;;;;;;;;;;;;2.94;61.81;98871.04;1766236;80;20139;-71
2021/03/21 11:40:32;;;;;;;;;;;;;;;3.11;61.30;98877.89;1765619;80;20536;-73
2021/03/21 11:43:20;;;;;;;;;;;;;;;3.19;59.20;98852.39;1766519;80;20131;-70
2021/03/21 11:45:49;;;;;;;;;;;;;;;3.24;59.08;98858.88;1766270;81;20219;-72
2021/03/21 11:48:36;;;;;;;;;;;;;;;3.32;60.40;98869.97;1766477;81;20866;-73
2021/03/21 11:51:05;;;;;;;;;;;;;;;3.47;60.36;98863.47;1765890;80;20581;-72
2021/03/21 11:53:35;;;;;;;;;;;;;;;3.78;58.43;98865.09;1766494;80;20605;-72
2021/03/21 11:56:24;;;;;;;;;;;;;;;3.42;58.83;98854.85;1766126;80;20194;-70
2021/03/21 11:59:10;;;;;;;;;;;;;;;3.34;57.92;98849.87;1766312;80;20758;-72
2021/03/21 12:01:56;;;;;;;;;;;;;;;3.06;60.06;98849.07;1766169;80;23298;-72
2021/03/21 12:04:33;;;;;;;;;;;;;;;3.65;62.12;98837.70;1766188;80;20135;-72
2021/03/21 12:07:01;;;;;;;;;;;;;;;3.12;58.91;98800.47;1766357;80;20139;-73
2021/03/21 12:09:35;;;;;;;;;;;;;;;3.12;60.80;98820.36;1766400;80;20518;-72
2021/03/21 12:12:12;;;;;;;;;;;;;;;3.47;60.63;98820.50;1766293;80;20235;-73
2021/03/21 12:14:46;;;;;;;;;;;;;;;3.90;59.05;98806.20;1786157;80;22586;-73
2021/03/21 12:17:26;;;;;;;;;;;;;;;4.10;57.40;98788.61;1757067;80;20222;-72
2021/03/21 12:19:56;;;;;;;;;;;;;;;3.67;57.34;98813.58;1778776;80;20260;-72
2021/03/21 12:22:38;;;;;;;;;;;;;;;3.40;57.45;98827.73;1783937;80;20686;-73
2021/03/21 12:25:19;;;;;;;;;;;;;;;3.02;59.63;98810.27;1790038;80;20572;-72
2021/03/21 12:27:47;;;;;;;;;;;;;;;3.15;61.31;98818.05;1783689;80;22195;-72
2021/03/21 12:30:34;;;;;;;;;;;;;;;3.22;61.20;98787.48;1791166;80;20214;-72
2021/03/21 12:33:13;;;;;;;;;;;;;;;3.56;59.85;98795.80;1787153;80;20222;-72
2021/03/21 12:35:43;;;;;;;;;;;;;;;3.72;57.34;98787.16;1779180;80;20254;-72
2021/03/21 12:38:14;;;;;;;;;;;;;;;3.70;58.08;98789.75;1774929;80;20285;-73
2021/03/21 12:40:43;;;;;;;;;;;;;;;3.36;58.83;98757.09;1775593;80;22146;-71
2021/03/21 12:43:31;;;;;;;;;;;;;;;3.50;57.25;98782.09;1777170;80;20218;-74
2021/03/21 12:46:03;;;;;;;;;;;;;;;3.68;57.90;98773.27;1788808;80;20524;-73
2021/03/21 12:48:32;;;;;;;;;;;;;;;3.69;59.18;98772.22;1788731;80;20532;-72
2021/03/21 12:51:01;;;;;;;;;;;;;;;3.75;60.29;98777.93;1788758;80;20230;-72
2021/03/21 12:53:31;;;;;;;;;;;;;;;3.80;58.44;98771.45;1788978;80;21208;-73
2021/03/21 12:56:03;;;;;;;;;;;;;;;4.27;58.38;98778.11;1788940;80;20238;-71
2021/03/21 12:58:30;;;;;;;;;;;;;;;3.98;57.05;98774.52;1788679;80;20538;-73
2021/03/21 13:01:01;;;;;;;;;;;;;;;4.13;54.77;98754.95;1788884;80;20214;-75
2021/03/21 13:03:30;;;;;;;;;;;;;;;4.03;54.46;98742.24;1788409;80;20282;-73
2021/03/21 13:05:59;;;;;;;;;;;;;;;4.32;54.13;98753.50;1788056;80;21334;-73
2021/03/21 13:08:28;;;;;;;;;;;;;;;4.40;53.71;98759.78;1788782;80;20155;-73
2021/03/21 13:10:56;;;;;;;;;;;;;;;3.68;55.13;98740.09;1788425;80;20226;-73
2021/03/21 13:13:24;;;;;;;;;;;;;;;3.54;56.58;98740.81;1789080;80;20533;-73
2021/03/21 13:15:54;;;;;;;;;;;;;;;4.07;55.57;98738.09;1788996;80;20317;-73
2021/03/21 13:18:23;;;;;;;;;;;;;;;3.79;56.33;98732.12;1789029;80;21355;-73
2021/03/21 13:20:57;;;;;;;;;;;;;;;3.78;57.68;98737.67;1788754;80;21114;-72
2021/03/21 13:23:25;;;;;;;;;;;;;;;3.60;56.81;98718.16;1786811;80;20389;-73
2021/03/21 13:25:54;;;;;;;;;;;;;;;3.94;58.14;98718.39;1786701;80;20710;-73
2021/03/21 13:28:23;;;;;;;;;;;;;;;4.38;57.03;98718.82;1788000;80;20218;-73
2021/03/21 13:30:52;;;;;;;;;;;;;;;4.48;56.60;98716.90;1789353;80;20505;-73
2021/03/21 13:33:27;;;;;;;;;;;;;;;3.92;52.90;98705.89;1787712;80;20305;-72
2021/03/21 13:35:56;;;;;;;;;;;;;;;3.97;55.02;98694.55;1787779;80;20269;-73
2021/03/21 13:38:25;;;;;;;;;;;;;;;3.63;55.32;98687.17;1788692;80;20155;-72
2021/03/21 13:40:53;;;;;;;;;;;;;;;3.97;56.47;98703.34;1789056;80;20247;-72